JTE7304 YSCB-YMML

Flight info

Callsign JTE7304
Flight time 0h 58m
Altitude 30000
Route CB Q215 TANTA Q29 ML
Aircraft B463/M-SDFGIRWY/LB1

Departure

Time 2026-05-03 20:50
Airport Canberra Airport (YSCB)

Arrival

Time 2026-05-03 21:49
Airport Melbourne Airport (YMML)
Time Latitude Longitude Altitude Speed Heading
2026-05-03 20:28 -35.30525 149.18843 1879 ft 0 kts 220°
2026-05-03 20:42 -35.30518 149.18850 1877 ft 4 kts 220°
2026-05-03 20:42 -35.30498 149.18872 1872 ft 4 kts 223°
2026-05-03 20:42 -35.30478 149.18893 1879 ft 4 kts 215°
2026-05-03 20:42 -35.30456 149.18904 1875 ft 1 kts 179°
2026-05-03 20:43 -35.30455 149.18904 1876 ft 0 kts 179°
2026-05-03 20:46 -35.30458 149.18905 1875 ft 1 kts 160°
2026-05-03 20:46 -35.30478 149.18928 1877 ft 6 kts 131°
2026-05-03 20:47 -35.30515 149.18985 1879 ft 11 kts 128°
2026-05-03 20:47 -35.30575 149.19076 1879 ft 16 kts 129°
2026-05-03 20:47 -35.30651 149.19190 1879 ft 16 kts 135°
2026-05-03 20:47 -35.30748 149.19239 1879 ft 16 kts 173°
2026-05-03 20:48 -35.30860 149.19238 1879 ft 16 kts 180°
2026-05-03 20:48 -35.30971 149.19241 1878 ft 16 kts 179°
2026-05-03 20:48 -35.31088 149.19238 1879 ft 18 kts 180°
2026-05-03 20:48 -35.31227 149.19241 1879 ft 22 kts 180°
2026-05-03 20:49 -35.31384 149.19244 1879 ft 22 kts 171°
2026-05-03 20:49 -35.31470 149.19368 1879 ft 19 kts 97°
2026-05-03 20:49 -35.31407 149.19445 1878 ft 4 kts 359°
2026-05-03 20:49 -35.31350 149.19444 1878 ft 32 kts 359°
2026-05-03 20:50 -35.30930 149.19442 1879 ft 87 kts 360°
2026-05-03 20:50 -35.30174 149.19440 1882 ft 128 kts
2026-05-03 20:50 -35.29267 149.19418 2219 ft 129 kts 359°
2026-05-03 20:50 -35.28397 149.19425 2704 ft 126 kts 358°
2026-05-03 20:51 -35.27451 149.19464 2858 ft 142 kts
2026-05-03 20:51 -35.26437 149.19544 3216 ft 146 kts
2026-05-03 20:51 -35.25457 149.19647 3795 ft 138 kts
2026-05-03 20:51 -35.24505 149.19763 4349 ft 137 kts 358°
2026-05-03 20:52 -35.23570 149.19891 4849 ft 137 kts
2026-05-03 20:52 -35.22646 149.19982 5401 ft 131 kts 359°
2026-05-03 20:52 -35.21736 149.20112 5836 ft 137 kts
2026-05-03 20:52 -35.20722 149.20198 6101 ft 152 kts 358°
2026-05-03 20:53 -35.19626 149.20321 6340 ft 165 kts
2026-05-03 20:53 -35.18457 149.20534 6585 ft 175 kts
2026-05-03 20:53 -35.17186 149.20703 6795 ft 195 kts 359°
2026-05-03 20:53 -35.15742 149.20882 6930 ft 221 kts
2026-05-03 20:54 -35.14222 149.21095 7584 ft 218 kts
2026-05-03 20:54 -35.11163 149.21455 8884 ft 224 kts 359°
2026-05-03 20:54 -35.09597 149.21645 9555 ft 228 kts 359°
2026-05-03 20:55 -35.08010 149.21840 10212 ft 231 kts 359°
2026-05-03 20:55 -35.06822 149.21987 10671 ft 232 kts 359°
2026-05-03 20:55 -35.05205 149.22191 11277 ft 236 kts 359°
2026-05-03 20:55 -35.03566 149.22374 11896 ft 236 kts 353°
2026-05-03 20:56 -35.02066 149.21789 12504 ft 229 kts 319°
2026-05-03 20:56 -35.01210 149.20168 13079 ft 236 kts 286°
2026-05-03 20:56 -35.01306 149.18127 13649 ft 252 kts 258°
2026-05-03 20:56 -35.01999 149.16131 14232 ft 263 kts 244°
2026-05-03 20:57 -35.03227 149.14416 14830 ft 273 kts 232°
2026-05-03 20:57 -35.04650 149.12820 15251 ft 286 kts 229°
2026-05-03 20:57 -35.06195 149.11179 15504 ft 302 kts 228°
2026-05-03 20:57 -35.07819 149.09476 15760 ft 313 kts 228°
2026-05-03 20:58 -35.09478 149.07717 16192 ft 316 kts 229°
2026-05-03 20:58 -35.11124 149.05935 16629 ft 317 kts 229°
2026-05-03 20:58 -35.12772 149.04120 16998 ft 322 kts 230°
2026-05-03 20:58 -35.14434 149.02243 17327 ft 327 kts 230°
2026-05-03 20:59 -35.16110 149.00346 17743 ft 329 kts 231°
2026-05-03 20:59 -35.17778 148.98426 18166 ft 330 kts 231°
2026-05-03 20:59 -35.19447 148.96486 18515 ft 332 kts 232°
2026-05-03 20:59 -35.21136 148.94558 18849 ft 335 kts 227°
2026-05-03 21:00 -35.23213 148.93138 19137 ft 355 kts 203°
2026-05-03 21:00 -35.23991 148.92889 19228 ft 358 kts 199°
2026-05-03 21:00 -35.27313 148.92197 19612 ft 364 kts 194°
2026-05-03 21:00 -35.29831 148.91792 19914 ft 366 kts 193°
2026-05-03 21:01 -35.33206 148.91325 20221 ft 371 kts 192°
2026-05-03 21:01 -35.35779 148.90983 20501 ft 372 kts 192°
2026-05-03 21:01 -35.38351 148.90617 20783 ft 373 kts 192°
2026-05-03 21:01 -35.40936 148.90230 21033 ft 374 kts 193°
2026-05-03 21:02 -35.43524 148.89804 21245 ft 376 kts 193°
2026-05-03 21:02 -35.45245 148.89523 21459 ft 376 kts 193°
2026-05-03 21:02 -35.47839 148.89091 21721 ft 377 kts 193°
2026-05-03 21:02 -35.50447 148.88650 21976 ft 378 kts 194°
2026-05-03 21:03 -35.53069 148.88200 22134 ft 384 kts 194°
2026-05-03 21:03 -35.55721 148.87759 22404 ft 385 kts 193°
2026-05-03 21:03 -35.58380 148.87327 22683 ft 386 kts 193°
2026-05-03 21:03 -35.61051 148.86890 22901 ft 388 kts 193°
2026-05-03 21:04 -35.63721 148.86436 23193 ft 387 kts 194°
2026-05-03 21:04 -35.66322 148.85674 23394 ft 382 kts 207°
2026-05-03 21:04 -35.68675 148.84252 23645 ft 373 kts 219°
2026-05-03 21:04 -35.70732 148.82358 23866 ft 367 kts 229°
2026-05-03 21:05 -35.72538 148.80145 23963 ft 366 kts 236°
2026-05-03 21:05 -35.74160 148.77754 24203 ft 362 kts 240°
2026-05-03 21:05 -35.75672 148.75278 24419 ft 361 kts 242°
2026-05-03 21:05 -35.77129 148.72786 24783 ft 356 kts 243°
2026-05-03 21:06 -35.78548 148.70291 25009 ft 356 kts 244°
2026-05-03 21:06 -35.79956 148.67773 25210 ft 357 kts 244°
2026-05-03 21:06 -35.81359 148.65243 25415 ft 359 kts 244°
2026-05-03 21:06 -35.82782 148.62710 25626 ft 360 kts 243°
2026-05-03 21:07 -35.84220 148.60175 25831 ft 361 kts 243°
2026-05-03 21:07 -35.85667 148.57637 26026 ft 363 kts 243°
2026-05-03 21:07 -35.87112 148.55074 26204 ft 365 kts 244°
2026-05-03 21:07 -35.88534 148.52531 26424 ft 365 kts 244°
2026-05-03 21:08 -35.89990 148.49950 26649 ft 366 kts 243°
2026-05-03 21:08 -35.91459 148.47375 26865 ft 368 kts 244°
2026-05-03 21:08 -35.92927 148.44801 27154 ft 366 kts 244°
2026-05-03 21:08 -35.94384 148.42217 27328 ft 367 kts 245°
2026-05-03 21:09 -35.95831 148.39626 27509 ft 368 kts 244°
2026-05-03 21:09 -35.97295 148.37036 27702 ft 368 kts 244°
2026-05-03 21:09 -35.98764 148.34428 27857 ft 370 kts 245°
2026-05-03 21:09 -36.00214 148.31798 27990 ft 372 kts 245°
2026-05-03 21:10 -36.01682 148.29161 28166 ft 373 kts 244°
2026-05-03 21:10 -36.03169 148.26530 28325 ft 374 kts 244°
2026-05-03 21:10 -36.04651 148.23888 28466 ft 374 kts 244°
2026-05-03 21:10 -36.06130 148.21239 28634 ft 375 kts 244°
2026-05-03 21:11 -36.07621 148.18582 28893 ft 376 kts 244°
2026-05-03 21:11 -36.09108 148.15932 29074 ft 376 kts 245°
2026-05-03 21:11 -36.10586 148.13263 29222 ft 376 kts 245°
2026-05-03 21:11 -36.12066 148.10584 29376 ft 377 kts 245°
2026-05-03 21:12 -36.13547 148.07904 29521 ft 378 kts 245°
2026-05-03 21:12 -36.15057 148.05229 29670 ft 380 kts 244°
2026-05-03 21:12 -36.16561 148.02543 29840 ft 379 kts 245°
2026-05-03 21:12 -36.18053 147.99849 29982 ft 380 kts 245°
2026-05-03 21:13 -36.21091 147.94416 30075 ft 388 kts 244°
2026-05-03 21:13 -36.24184 147.88857 30078 ft 395 kts 245°
2026-05-03 21:14 -36.27319 147.83211 30084 ft 401 kts 244°
2026-05-03 21:14 -36.30506 147.77506 30058 ft 405 kts 245°
2026-05-03 21:15 -36.33713 147.71714 30069 ft 409 kts 244°
2026-05-03 21:15 -36.36925 147.65866 30069 ft 412 kts 244°
2026-05-03 21:16 -36.40164 147.59968 30086 ft 414 kts 245°
2026-05-03 21:16 -36.43439 147.54047 30079 ft 417 kts 244°
2026-05-03 21:17 -36.46137 147.49094 30083 ft 417 kts 244°
2026-05-03 21:17 -36.49971 147.42134 30083 ft 417 kts 245°
2026-05-03 21:18 -36.53224 147.36173 30079 ft 415 kts 244°
2026-05-03 21:18 -36.56468 147.30243 30068 ft 414 kts 245°
2026-05-03 21:19 -36.59678 147.24325 30064 ft 412 kts 245°
2026-05-03 21:19 -36.62882 147.18440 30068 ft 410 kts 245°
2026-05-03 21:20 -36.66067 147.12560 30072 ft 409 kts 245°
2026-05-03 21:20 -36.69250 147.06683 30077 ft 410 kts 244°
2026-05-03 21:21 -36.72445 147.00804 30036 ft 408 kts 245°
2026-05-03 21:21 -36.75616 146.94929 30064 ft 408 kts 244°
2026-05-03 21:22 -36.78769 146.89055 30064 ft 407 kts 245°
2026-05-03 21:22 -36.81924 146.83216 30095 ft 407 kts 244°
2026-05-03 21:23 -36.85080 146.77333 30092 ft 408 kts 245°
2026-05-03 21:23 -36.88246 146.71446 30065 ft 409 kts 245°
2026-05-03 21:24 -36.91411 146.65526 30067 ft 410 kts 245°
2026-05-03 21:24 -36.94583 146.59594 29924 ft 413 kts 244°
2026-05-03 21:25 -36.96195 146.56572 29399 ft 422 kts 244°
2026-05-03 21:25 -36.97837 146.53484 28887 ft 431 kts 244°
2026-05-03 21:25 -36.99505 146.50359 28394 ft 428 kts 244°
2026-05-03 21:25 -37.01151 146.47309 27893 ft 418 kts 244°
2026-05-03 21:26 -37.02750 146.44315 27406 ft 409 kts 245°
2026-05-03 21:26 -37.04306 146.41381 26934 ft 401 kts 245°
2026-05-03 21:26 -37.05837 146.38488 26486 ft 397 kts 245°
2026-05-03 21:26 -37.07334 146.35656 26037 ft 393 kts 245°
2026-05-03 21:27 -37.08850 146.32783 25588 ft 388 kts 245°
2026-05-03 21:27 -37.10314 146.30018 25148 ft 384 kts 245°
2026-05-03 21:27 -37.11788 146.27253 24703 ft 380 kts 245°
2026-05-03 21:27 -37.13257 146.24494 24266 ft 381 kts 245°
2026-05-03 21:28 -37.14724 146.21731 23842 ft 381 kts 245°
2026-05-03 21:28 -37.16191 146.18970 23373 ft 380 kts 245°
2026-05-03 21:28 -37.17651 146.16213 22869 ft 379 kts 245°
2026-05-03 21:28 -37.19086 146.13448 22365 ft 378 kts 245°
2026-05-03 21:29 -37.20522 146.10688 21889 ft 377 kts 245°
2026-05-03 21:29 -37.21964 146.07949 21401 ft 376 kts 245°
2026-05-03 21:29 -37.23409 146.05221 20898 ft 375 kts 244°
2026-05-03 21:29 -37.24849 146.02510 20463 ft 372 kts 245°
2026-05-03 21:30 -37.26261 145.99805 19981 ft 370 kts 245°
2026-05-03 21:30 -37.27669 145.97114 19539 ft 368 kts 245°
2026-05-03 21:30 -37.29067 145.94441 19078 ft 365 kts 245°
2026-05-03 21:30 -37.30462 145.91780 18621 ft 363 kts 245°
2026-05-03 21:31 -37.31849 145.89145 18182 ft 361 kts 245°
2026-05-03 21:31 -37.33218 145.86516 17682 ft 358 kts 245°
2026-05-03 21:31 -37.34557 145.83899 17233 ft 355 kts 245°
2026-05-03 21:31 -37.35915 145.81322 16753 ft 353 kts 244°
2026-05-03 21:32 -37.37274 145.78768 16326 ft 350 kts 244°
2026-05-03 21:32 -37.38609 145.76222 15897 ft 347 kts 244°
2026-05-03 21:32 -37.39939 145.73704 15467 ft 345 kts 244°
2026-05-03 21:32 -37.41257 145.71195 15024 ft 342 kts 244°
2026-05-03 21:33 -37.42549 145.68690 14590 ft 340 kts 244°
2026-05-03 21:33 -37.43837 145.66205 14139 ft 338 kts 244°
2026-05-03 21:33 -37.45137 145.63741 13669 ft 337 kts 243°
2026-05-03 21:33 -37.46482 145.61325 13168 ft 338 kts 241°
2026-05-03 21:34 -37.47866 145.58942 12719 ft 337 kts 242°
2026-05-03 21:34 -37.49249 145.56569 12272 ft 336 kts 241°
2026-05-03 21:34 -37.50639 145.54201 11814 ft 335 kts 241°
2026-05-03 21:34 -37.52022 145.51842 11391 ft 335 kts 241°
2026-05-03 21:35 -37.53391 145.49484 10937 ft 331 kts 240°
2026-05-03 21:35 -37.54735 145.47181 10508 ft 321 kts 240°
2026-05-03 21:35 -37.56034 145.44943 10116 ft 306 kts 240°
2026-05-03 21:35 -37.57232 145.42883 9690 ft 279 kts 242°
2026-05-03 21:36 -37.58337 145.40958 9327 ft 269 kts 242°
2026-05-03 21:36 -37.59431 145.39063 8988 ft 266 kts 242°
2026-05-03 21:36 -37.60515 145.37183 8639 ft 264 kts 242°
2026-05-03 21:36 -37.61589 145.35320 8303 ft 261 kts 242°
2026-05-03 21:37 -37.62656 145.33462 7972 ft 262 kts 242°
2026-05-03 21:37 -37.63738 145.31591 7620 ft 266 kts 241°
2026-05-03 21:37 -37.64832 145.29703 7321 ft 268 kts 241°
2026-05-03 21:37 -37.65941 145.27799 7014 ft 270 kts 241°
2026-05-03 21:38 -37.67054 145.25878 6723 ft 272 kts 241°
2026-05-03 21:38 -37.68170 145.23953 6416 ft 268 kts 241°
2026-05-03 21:38 -37.69256 145.22087 6075 ft 259 kts 241°
2026-05-03 21:38 -37.70303 145.20285 5748 ft 251 kts 241°
2026-05-03 21:39 -37.71312 145.18525 5382 ft 244 kts 242°
2026-05-03 21:39 -37.72304 145.16778 5010 ft 245 kts 242°
2026-05-03 21:39 -37.73303 145.15012 4657 ft 249 kts 242°
2026-05-03 21:39 -37.74325 145.13218 4320 ft 253 kts 242°
2026-05-03 21:40 -37.75351 145.11423 4148 ft 251 kts 241°
2026-05-03 21:40 -37.76370 145.09663 4059 ft 246 kts 241°
2026-05-03 21:40 -37.77367 145.07946 4021 ft 238 kts 241°
2026-05-03 21:40 -37.78321 145.06287 4003 ft 228 kts 242°
2026-05-03 21:41 -37.79239 145.04693 3997 ft 220 kts 242°
2026-05-03 21:41 -37.80125 145.03150 4000 ft 214 kts 242°
2026-05-03 21:41 -37.80968 145.01644 4008 ft 209 kts 247°
2026-05-03 21:41 -37.81488 145.00001 4018 ft 197 kts 263°
2026-05-03 21:42 -37.81840 144.98316 3888 ft 200 kts 264°
2026-05-03 21:42 -37.82162 144.96592 3747 ft 200 kts 265°
2026-05-03 21:42 -37.82464 144.94901 3641 ft 192 kts 266°
2026-05-03 21:42 -37.82714 144.93341 3573 ft 171 kts 269°
2026-05-03 21:43 -37.82911 144.91910 3413 ft 160 kts 271°
2026-05-03 21:43 -37.83086 144.90548 3250 ft 154 kts 271°
2026-05-03 21:43 -37.83244 144.89214 3090 ft 154 kts 271°
2026-05-03 21:43 -37.83128 144.87942 2922 ft 142 kts 309°
2026-05-03 21:44 -37.82355 144.87270 2783 ft 133 kts 333°
2026-05-03 21:44 -37.81512 144.86829 2625 ft 130 kts 339°
2026-05-03 21:44 -37.80652 144.86514 2500 ft 129 kts 343°
2026-05-03 21:44 -37.79774 144.86274 2335 ft 129 kts 346°
2026-05-03 21:45 -37.78882 144.86087 2186 ft 129 kts 347°
2026-05-03 21:45 -37.78012 144.85921 2075 ft 124 kts 348°
2026-05-03 21:45 -37.77183 144.85770 1993 ft 116 kts 348°
2026-05-03 21:45 -37.76410 144.85630 1884 ft 109 kts 348°
2026-05-03 21:46 -37.75652 144.85492 1693 ft 112 kts 349°
2026-05-03 21:46 -37.74888 144.85329 1527 ft 110 kts 347°
2026-05-03 21:46 -37.74153 144.85150 1370 ft 106 kts 347°
2026-05-03 21:46 -37.73657 144.85015 1275 ft 118 kts 350°
2026-05-03 21:47 -37.72821 144.84814 1187 ft 120 kts 353°
2026-05-03 21:47 -37.72011 144.84683 1027 ft 117 kts 356°
2026-05-03 21:47 -37.71199 144.84566 874 ft 119 kts 356°
2026-05-03 21:47 -37.70360 144.84431 720 ft 123 kts 356°
2026-05-03 21:48 -37.69533 144.84275 595 ft 117 kts 357°
2026-05-03 21:48 -37.68737 144.84124 423 ft 113 kts 356°
2026-05-03 21:48 -37.67996 144.83986 354 ft 96 kts 356°
2026-05-03 21:48 -37.67437 144.83887 368 ft 66 kts 351°
2026-05-03 21:49 -37.67147 144.83833 381 ft 24 kts 357°
2026-05-03 21:49 -37.67008 144.83844 385 ft 16 kts
2026-05-03 21:49 -37.66927 144.83875 388 ft 9 kts 17°
2026-05-03 21:49 -37.66886 144.83892 390 ft 4 kts 21°
2026-05-03 21:50 -37.66857 144.83908 390 ft 7 kts 23°
2026-05-03 21:50 -37.66805 144.83956 392 ft 13 kts 86°
2026-05-03 21:50 -37.66911 144.84007 387 ft 22 kts 172°
2026-05-03 21:50 -37.67079 144.84037 382 ft 26 kts 171°
2026-05-03 21:51 -37.67235 144.84066 378 ft 22 kts 172°
2026-05-03 21:51 -37.67380 144.84095 374 ft 21 kts 172°
2026-05-03 21:51 -37.67520 144.84120 372 ft 20 kts 172°
2026-05-03 21:51 -37.67656 144.84145 366 ft 19 kts 172°
2026-05-03 21:52 -37.67788 144.84170 364 ft 19 kts 168°
2026-05-03 21:52 -37.67852 144.84280 360 ft 16 kts 85°
2026-05-03 21:52 -37.67839 144.84397 364 ft 11 kts 78°
2026-05-03 21:52 -37.67828 144.84476 367 ft 8 kts 82°
2026-05-03 21:53 -37.67820 144.84546 365 ft 8 kts 76°
2026-05-03 21:53 -37.67792 144.84593 368 ft 6 kts 29°
2026-05-03 21:53 -37.67758 144.84627 369 ft 8 kts 54°
2026-05-03 21:53 -37.67738 144.84708 371 ft 11 kts 80°
2026-05-03 21:54 -37.67758 144.84775 371 ft 10 kts 161°
2026-05-03 21:54 -37.67815 144.84787 371 ft 3 kts 172°
2026-05-03 21:54 -37.67828 144.84790 367 ft 0 kts 171°